sensor_id;sensor_type;location;lat;lon;timestamp;P1;durP1;ratioP1;P2;durP2;ratioP2
67717;SDS011;54511;47.532;19.180;2022-08-19T00:00:52;10.90;;;7.07;;
67717;SDS011;54511;47.532;19.180;2022-08-19T00:03:19;11.88;;;7.28;;
67717;SDS011;54511;47.532;19.180;2022-08-19T00:05:47;13.62;;;7.70;;
67717;SDS011;54511;47.532;19.180;2022-08-19T00:08:14;13.50;;;7.62;;
67717;SDS011;54511;47.532;19.180;2022-08-19T00:10:40;11.80;;;7.22;;
67717;SDS011;54511;47.532;19.180;2022-08-19T00:13:07;14.85;;;7.60;;
67717;SDS011;54511;47.532;19.180;2022-08-19T00:15:36;11.10;;;6.97;;
67717;SDS011;54511;47.532;19.180;2022-08-19T00:18:03;13.88;;;8.18;;
67717;SDS011;54511;47.532;19.180;2022-08-19T00:20:29;12.27;;;7.57;;
67717;SDS011;54511;47.532;19.180;2022-08-19T00:22:56;10.57;;;7.30;;
67717;SDS011;54511;47.532;19.180;2022-08-19T00:25:24;12.20;;;7.50;;
67717;SDS011;54511;47.532;19.180;2022-08-19T00:27:52;10.60;;;7.47;;
67717;SDS011;54511;47.532;19.180;2022-08-19T00:30:19;11.77;;;7.45;;
67717;SDS011;54511;47.532;19.180;2022-08-19T00:32:49;11.70;;;7.22;;
67717;SDS011;54511;47.532;19.180;2022-08-19T00:35:16;10.27;;;7.37;;
67717;SDS011;54511;47.532;19.180;2022-08-19T00:37:43;11.23;;;7.57;;
67717;SDS011;54511;47.532;19.180;2022-08-19T00:40:11;12.65;;;7.50;;
67717;SDS011;54511;47.532;19.180;2022-08-19T00:42:38;11.70;;;7.45;;
67717;SDS011;54511;47.532;19.180;2022-08-19T00:45:09;11.95;;;7.82;;
67717;SDS011;54511;47.532;19.180;2022-08-19T00:47:38;10.43;;;7.20;;
67717;SDS011;54511;47.532;19.180;2022-08-19T00:50:07;10.02;;;6.97;;
67717;SDS011;54511;47.532;19.180;2022-08-19T00:52:36;10.50;;;7.47;;
67717;SDS011;54511;47.532;19.180;2022-08-19T00:55:06;14.43;;;7.90;;
67717;SDS011;54511;47.532;19.180;2022-08-19T00:57:36;11.25;;;7.20;;
67717;SDS011;54511;47.532;19.180;2022-08-19T01:00:06;12.85;;;7.85;;
67717;SDS011;54511;47.532;19.180;2022-08-19T01:02:36;13.45;;;8.35;;
67717;SDS011;54511;47.532;19.180;2022-08-19T01:05:06;13.45;;;7.35;;
67717;SDS011;54511;47.532;19.180;2022-08-19T01:07:37;11.40;;;7.18;;
67717;SDS011;54511;47.532;19.180;2022-08-19T01:10:06;11.73;;;7.20;;
67717;SDS011;54511;47.532;19.180;2022-08-19T01:12:35;10.20;;;7.40;;
67717;SDS011;54511;47.532;19.180;2022-08-19T01:15:03;12.60;;;7.80;;
67717;SDS011;54511;47.532;19.180;2022-08-19T01:17:32;10.80;;;7.07;;
67717;SDS011;54511;47.532;19.180;2022-08-19T01:20:00;13.18;;;7.85;;
67717;SDS011;54511;47.532;19.180;2022-08-19T01:22:29;10.35;;;7.43;;
67717;SDS011;54511;47.532;19.180;2022-08-19T01:24:57;10.68;;;7.75;;
67717;SDS011;54511;47.532;19.180;2022-08-19T01:27:24;12.98;;;7.60;;
67717;SDS011;54511;47.532;19.180;2022-08-19T01:29:51;13.02;;;7.95;;
67717;SDS011;54511;47.532;19.180;2022-08-19T01:32:18;10.05;;;7.50;;
67717;SDS011;54511;47.532;19.180;2022-08-19T01:34:46;11.27;;;7.50;;
67717;SDS011;54511;47.532;19.180;2022-08-19T01:37:14;11.32;;;7.65;;
67717;SDS011;54511;47.532;19.180;2022-08-19T01:39:43;12.52;;;7.35;;
67717;SDS011;54511;47.532;19.180;2022-08-19T01:42:10;14.00;;;7.70;;
67717;SDS011;54511;47.532;19.180;2022-08-19T01:44:37;11.50;;;7.62;;
67717;SDS011;54511;47.532;19.180;2022-08-19T01:47:06;15.90;;;7.95;;
67717;SDS011;54511;47.532;19.180;2022-08-19T01:49:34;13.88;;;8.32;;
67717;SDS011;54511;47.532;19.180;2022-08-19T01:52:01;13.32;;;7.82;;
67717;SDS011;54511;47.532;19.180;2022-08-19T01:54:28;12.43;;;7.85;;
67717;SDS011;54511;47.532;19.180;2022-08-19T01:56:59;12.52;;;8.02;;
67717;SDS011;54511;47.532;19.180;2022-08-19T01:59:29;13.35;;;8.20;;
67717;SDS011;54511;47.532;19.180;2022-08-19T02:01:57;12.10;;;7.95;;
67717;SDS011;54511;47.532;19.180;2022-08-19T02:04:24;16.08;;;8.30;;
67717;SDS011;54511;47.532;19.180;2022-08-19T02:06:51;13.75;;;8.13;;
67717;SDS011;54511;47.532;19.180;2022-08-19T02:09:18;11.90;;;8.32;;
67717;SDS011;54511;47.532;19.180;2022-08-19T02:11:46;14.50;;;8.38;;
67717;SDS011;54511;47.532;19.180;2022-08-19T02:14:14;13.50;;;8.35;;
67717;SDS011;54511;47.532;19.180;2022-08-19T02:16:41;12.52;;;8.00;;
67717;SDS011;54511;47.532;19.180;2022-08-19T02:19:08;12.35;;;8.48;;
67717;SDS011;54511;47.532;19.180;2022-08-19T02:21:35;15.25;;;8.05;;
67717;SDS011;54511;47.532;19.180;2022-08-19T02:24:02;15.15;;;8.05;;
67717;SDS011;54511;47.532;19.180;2022-08-19T02:26:30;13.48;;;8.23;;
67717;SDS011;54511;47.532;19.180;2022-08-19T02:28:58;12.63;;;8.38;;
67717;SDS011;54511;47.532;19.180;2022-08-19T02:31:27;12.27;;;8.13;;
67717;SDS011;54511;47.532;19.180;2022-08-19T02:33:55;12.73;;;7.93;;
67717;SDS011;54511;47.532;19.180;2022-08-19T02:36:24;12.23;;;8.32;;
67717;SDS011;54511;47.532;19.180;2022-08-19T02:38:52;12.70;;;8.45;;
67717;SDS011;54511;47.532;19.180;2022-08-19T02:41:20;13.43;;;8.70;;
67717;SDS011;54511;47.532;19.180;2022-08-19T02:43:48;13.57;;;8.32;;
67717;SDS011;54511;47.532;19.180;2022-08-19T02:46:16;15.68;;;8.13;;
67717;SDS011;54511;47.532;19.180;2022-08-19T02:48:47;13.27;;;8.30;;
67717;SDS011;54511;47.532;19.180;2022-08-19T02:51:15;16.27;;;8.68;;
67717;SDS011;54511;47.532;19.180;2022-08-19T02:53:43;13.32;;;8.45;;
67717;SDS011;54511;47.532;19.180;2022-08-19T02:56:10;12.65;;;8.18;;
67717;SDS011;54511;47.532;19.180;2022-08-19T02:58:38;11.82;;;8.10;;
67717;SDS011;54511;47.532;19.180;2022-08-19T03:01:05;14.55;;;8.73;;
67717;SDS011;54511;47.532;19.180;2022-08-19T03:03:32;12.30;;;8.55;;
67717;SDS011;54511;47.532;19.180;2022-08-19T03:06:05;14.52;;;8.45;;
67717;SDS011;54511;47.532;19.180;2022-08-19T03:08:33;13.15;;;8.98;;
67717;SDS011;54511;47.532;19.180;2022-08-19T03:11:00;15.25;;;8.75;;
67717;SDS011;54511;47.532;19.180;2022-08-19T03:13:27;15.20;;;8.75;;
67717;SDS011;54511;47.532;19.180;2022-08-19T03:15:54;15.88;;;8.43;;
67717;SDS011;54511;47.532;19.180;2022-08-19T03:18:22;16.42;;;9.10;;
67717;SDS011;54511;47.532;19.180;2022-08-19T03:20:50;14.75;;;9.00;;
67717;SDS011;54511;47.532;19.180;2022-08-19T03:23:21;13.00;;;8.27;;
67717;SDS011;54511;47.532;19.180;2022-08-19T03:25:48;13.82;;;8.88;;
67717;SDS011;54511;47.532;19.180;2022-08-19T03:28:16;12.98;;;8.57;;
67717;SDS011;54511;47.532;19.180;2022-08-19T03:30:54;13.32;;;8.45;;
67717;SDS011;54511;47.532;19.180;2022-08-19T03:33:23;15.18;;;8.65;;
67717;SDS011;54511;47.532;19.180;2022-08-19T03:36:04;15.80;;;9.00;;
67717;SDS011;54511;47.532;19.180;2022-08-19T03:38:35;14.43;;;8.65;;
67717;SDS011;54511;47.532;19.180;2022-08-19T03:41:04;14.80;;;8.20;;
67717;SDS011;54511;47.532;19.180;2022-08-19T03:43:34;12.93;;;8.27;;
67717;SDS011;54511;47.532;19.180;2022-08-19T03:46:02;15.43;;;8.57;;
67717;SDS011;54511;47.532;19.180;2022-08-19T03:48:30;12.27;;;8.35;;
67717;SDS011;54511;47.532;19.180;2022-08-19T03:50:58;14.80;;;9.00;;
67717;SDS011;54511;47.532;19.180;2022-08-19T03:53:25;13.73;;;8.50;;
67717;SDS011;54511;47.532;19.180;2022-08-19T03:55:55;16.85;;;8.80;;
67717;SDS011;54511;47.532;19.180;2022-08-19T03:58:23;17.83;;;8.50;;
67717;SDS011;54511;47.532;19.180;2022-08-19T04:00:50;15.13;;;8.57;;
67717;SDS011;54511;47.532;19.180;2022-08-19T04:03:17;17.98;;;8.52;;
67717;SDS011;54511;47.532;19.180;2022-08-19T04:05:45;14.23;;;8.70;;
67717;SDS011;54511;47.532;19.180;2022-08-19T04:08:13;13.77;;;8.68;;
67717;SDS011;54511;47.532;19.180;2022-08-19T04:10:45;12.65;;;8.15;;
67717;SDS011;54511;47.532;19.180;2022-08-19T04:13:14;13.77;;;8.90;;
67717;SDS011;54511;47.532;19.180;2022-08-19T04:15:42;16.12;;;8.60;;
67717;SDS011;54511;47.532;19.180;2022-08-19T04:18:10;14.13;;;8.63;;
67717;SDS011;54511;47.532;19.180;2022-08-19T04:20:38;18.65;;;8.75;;
67717;SDS011;54511;47.532;19.180;2022-08-19T04:23:06;16.98;;;8.52;;
67717;SDS011;54511;47.532;19.180;2022-08-19T04:25:37;16.27;;;8.95;;
67717;SDS011;54511;47.532;19.180;2022-08-19T04:28:05;13.48;;;8.52;;
67717;SDS011;54511;47.532;19.180;2022-08-19T04:30:38;12.32;;;8.85;;
67717;SDS011;54511;47.532;19.180;2022-08-19T04:33:07;13.93;;;8.70;;
67717;SDS011;54511;47.532;19.180;2022-08-19T04:35:36;17.37;;;8.85;;
67717;SDS011;54511;47.532;19.180;2022-08-19T04:38:04;14.27;;;8.80;;
67717;SDS011;54511;47.532;19.180;2022-08-19T04:40:31;14.45;;;8.68;;
67717;SDS011;54511;47.532;19.180;2022-08-19T04:43:15;14.45;;;7.85;;
67717;SDS011;54511;47.532;19.180;2022-08-19T04:45:43;17.20;;;8.85;;
67717;SDS011;54511;47.532;19.180;2022-08-19T04:48:10;15.50;;;8.82;;
67717;SDS011;54511;47.532;19.180;2022-08-19T04:50:39;15.15;;;8.60;;
67717;SDS011;54511;47.532;19.180;2022-08-19T04:53:08;15.35;;;8.30;;
67717;SDS011;54511;47.532;19.180;2022-08-19T04:55:38;14.18;;;8.32;;
67717;SDS011;54511;47.532;19.180;2022-08-19T04:58:05;13.98;;;8.45;;
67717;SDS011;54511;47.532;19.180;2022-08-19T05:00:32;13.23;;;8.68;;
67717;SDS011;54511;47.532;19.180;2022-08-19T05:03:01;13.05;;;8.38;;
67717;SDS011;54511;47.532;19.180;2022-08-19T05:05:28;14.65;;;8.57;;
67717;SDS011;54511;47.532;19.180;2022-08-19T05:07:56;18.02;;;9.15;;
67717;SDS011;54511;47.532;19.180;2022-08-19T05:10:23;14.15;;;8.65;;
67717;SDS011;54511;47.532;19.180;2022-08-19T05:12:50;13.93;;;8.82;;
67717;SDS011;54511;47.532;19.180;2022-08-19T05:15:17;12.70;;;8.38;;
67717;SDS011;54511;47.532;19.180;2022-08-19T05:17:45;13.30;;;8.50;;
67717;SDS011;54511;47.532;19.180;2022-08-19T05:20:27;13.73;;;8.02;;
67717;SDS011;54511;47.532;19.180;2022-08-19T05:23:11;14.93;;;8.63;;
67717;SDS011;54511;47.532;19.180;2022-08-19T05:25:40;15.77;;;8.45;;
67717;SDS011;54511;47.532;19.180;2022-08-19T05:28:08;14.43;;;9.05;;
67717;SDS011;54511;47.532;19.180;2022-08-19T05:30:35;14.82;;;8.82;;
67717;SDS011;54511;47.532;19.180;2022-08-19T05:33:02;14.65;;;8.98;;
67717;SDS011;54511;47.532;19.180;2022-08-19T05:35:30;16.80;;;8.02;;
67717;SDS011;54511;47.532;19.180;2022-08-19T05:37:57;23.52;;;9.45;;
67717;SDS011;54511;47.532;19.180;2022-08-19T05:40:24;18.00;;;8.20;;
67717;SDS011;54511;47.532;19.180;2022-08-19T05:42:51;15.70;;;8.32;;
67717;SDS011;54511;47.532;19.180;2022-08-19T05:45:18;17.80;;;8.93;;
67717;SDS011;54511;47.532;19.180;2022-08-19T05:47:46;15.63;;;7.82;;
67717;SDS011;54511;47.532;19.180;2022-08-19T05:50:14;20.90;;;8.25;;
67717;SDS011;54511;47.532;19.180;2022-08-19T05:52:43;12.15;;;7.30;;
67717;SDS011;54511;47.532;19.180;2022-08-19T05:55:11;15.60;;;7.87;;
67717;SDS011;54511;47.532;19.180;2022-08-19T05:57:39;14.13;;;7.90;;
67717;SDS011;54511;47.532;19.180;2022-08-19T06:00:07;10.35;;;6.22;;
67717;SDS011;54511;47.532;19.180;2022-08-19T06:02:36;9.65;;;5.62;;
67717;SDS011;54511;47.532;19.180;2022-08-19T06:05:04;10.20;;;5.65;;
67717;SDS011;54511;47.532;19.180;2022-08-19T06:07:34;11.15;;;6.12;;
67717;SDS011;54511;47.532;19.180;2022-08-19T06:10:03;9.27;;;5.82;;
67717;SDS011;54511;47.532;19.180;2022-08-19T06:12:32;9.40;;;6.00;;
67717;SDS011;54511;47.532;19.180;2022-08-19T06:15:00;12.23;;;6.03;;
67717;SDS011;54511;47.532;19.180;2022-08-19T06:17:28;11.15;;;6.10;;
67717;SDS011;54511;47.532;19.180;2022-08-19T06:19:55;9.15;;;5.85;;
67717;SDS011;54511;47.532;19.180;2022-08-19T06:22:24;13.95;;;5.87;;
67717;SDS011;54511;47.532;19.180;2022-08-19T06:24:51;9.82;;;6.20;;
67717;SDS011;54511;47.532;19.180;2022-08-19T06:27:20;9.65;;;5.72;;
67717;SDS011;54511;47.532;19.180;2022-08-19T06:29:47;10.07;;;6.20;;
67717;SDS011;54511;47.532;19.180;2022-08-19T06:32:16;10.77;;;5.57;;
67717;SDS011;54511;47.532;19.180;2022-08-19T06:34:44;10.18;;;6.03;;
67717;SDS011;54511;47.532;19.180;2022-08-19T06:37:11;11.38;;;5.93;;
67717;SDS011;54511;47.532;19.180;2022-08-19T06:39:39;9.30;;;5.53;;
67717;SDS011;54511;47.532;19.180;2022-08-19T06:42:08;11.73;;;5.93;;
67717;SDS011;54511;47.532;19.180;2022-08-19T06:44:40;11.93;;;5.77;;
67717;SDS011;54511;47.532;19.180;2022-08-19T06:47:08;8.75;;;5.45;;
67717;SDS011;54511;47.532;19.180;2022-08-19T06:49:36;12.80;;;5.82;;
67717;SDS011;54511;47.532;19.180;2022-08-19T06:52:03;8.90;;;5.72;;
67717;SDS011;54511;47.532;19.180;2022-08-19T06:54:30;11.63;;;5.72;;
67717;SDS011;54511;47.532;19.180;2022-08-19T06:56:58;10.60;;;5.60;;
67717;SDS011;54511;47.532;19.180;2022-08-19T06:59:27;10.43;;;5.65;;
67717;SDS011;54511;47.532;19.180;2022-08-19T07:01:59;8.02;;;5.43;;
67717;SDS011;54511;47.532;19.180;2022-08-19T07:04:30;10.10;;;6.47;;
67717;SDS011;54511;47.532;19.180;2022-08-19T07:06:59;9.57;;;5.65;;
67717;SDS011;54511;47.532;19.180;2022-08-19T07:09:27;10.60;;;5.90;;
67717;SDS011;54511;47.532;19.180;2022-08-19T07:11:55;12.73;;;5.97;;
67717;SDS011;54511;47.532;19.180;2022-08-19T07:14:23;9.98;;;5.53;;
67717;SDS011;54511;47.532;19.180;2022-08-19T07:16:52;8.35;;;5.70;;
67717;SDS011;54511;47.532;19.180;2022-08-19T07:19:23;10.25;;;5.53;;
67717;SDS011;54511;47.532;19.180;2022-08-19T07:21:53;10.48;;;6.05;;
67717;SDS011;54511;47.532;19.180;2022-08-19T07:24:20;10.00;;;5.68;;
67717;SDS011;54511;47.532;19.180;2022-08-19T07:26:49;8.98;;;5.75;;
67717;SDS011;54511;47.532;19.180;2022-08-19T07:29:20;10.95;;;5.93;;
67717;SDS011;54511;47.532;19.180;2022-08-19T07:31:48;10.57;;;6.00;;
67717;SDS011;54511;47.532;19.180;2022-08-19T07:34:15;10.90;;;6.20;;
67717;SDS011;54511;47.532;19.180;2022-08-19T07:36:44;10.82;;;6.00;;
67717;SDS011;54511;47.532;19.180;2022-08-19T07:39:13;10.40;;;5.68;;
67717;SDS011;54511;47.532;19.180;2022-08-19T07:44:09;7.75;;;5.43;;
67717;SDS011;54511;47.532;19.180;2022-08-19T07:46:39;10.80;;;6.32;;
67717;SDS011;54511;47.532;19.180;2022-08-19T07:49:07;12.40;;;6.05;;
67717;SDS011;54511;47.532;19.180;2022-08-19T07:51:44;9.98;;;6.20;;
67717;SDS011;54511;47.532;19.180;2022-08-19T07:54:15;7.70;;;5.65;;
67717;SDS011;54511;47.532;19.180;2022-08-19T07:56:42;10.48;;;5.97;;
67717;SDS011;54511;47.532;19.180;2022-08-19T07:59:09;10.18;;;6.03;;
67717;SDS011;54511;47.532;19.180;2022-08-19T08:01:36;9.52;;;5.75;;
67717;SDS011;54511;47.532;19.180;2022-08-19T08:04:05;8.35;;;5.80;;
67717;SDS011;54511;47.532;19.180;2022-08-19T08:06:51;9.43;;;5.90;;
67717;SDS011;54511;47.532;19.180;2022-08-19T08:09:37;7.57;;;5.35;;
67717;SDS011;54511;47.532;19.180;2022-08-19T08:12:06;9.68;;;6.00;;
67717;SDS011;54511;47.532;19.180;2022-08-19T08:14:36;10.43;;;5.87;;
67717;SDS011;54511;47.532;19.180;2022-08-19T08:17:05;10.15;;;5.68;;
67717;SDS011;54511;47.532;19.180;2022-08-19T08:19:32;9.35;;;5.43;;
67717;SDS011;54511;47.532;19.180;2022-08-19T08:22:03;8.18;;;5.65;;
67717;SDS011;54511;47.532;19.180;2022-08-19T08:24:32;8.25;;;5.68;;
67717;SDS011;54511;47.532;19.180;2022-08-19T08:27:01;8.35;;;5.85;;
67717;SDS011;54511;47.532;19.180;2022-08-19T08:29:29;9.02;;;5.65;;
67717;SDS011;54511;47.532;19.180;2022-08-19T08:31:57;8.93;;;5.60;;
67717;SDS011;54511;47.532;19.180;2022-08-19T08:34:23;8.43;;;5.70;;
67717;SDS011;54511;47.532;19.180;2022-08-19T08:36:50;8.38;;;5.45;;
67717;SDS011;54511;47.532;19.180;2022-08-19T08:39:20;9.93;;;5.75;;
67717;SDS011;54511;47.532;19.180;2022-08-19T08:41:50;14.00;;;6.03;;
67717;SDS011;54511;47.532;19.180;2022-08-19T08:44:20;8.50;;;5.30;;
67717;SDS011;54511;47.532;19.180;2022-08-19T08:46:51;10.30;;;6.25;;
67717;SDS011;54511;47.532;19.180;2022-08-19T08:49:23;9.98;;;5.75;;
67717;SDS011;54511;47.532;19.180;2022-08-19T08:51:54;9.73;;;5.57;;
67717;SDS011;54511;47.532;19.180;2022-08-19T08:54:28;9.68;;;5.40;;
67717;SDS011;54511;47.532;19.180;2022-08-19T08:56:58;6.45;;;4.97;;
67717;SDS011;54511;47.532;19.180;2022-08-19T08:59:26;8.02;;;5.25;;
67717;SDS011;54511;47.532;19.180;2022-08-19T09:01:56;8.90;;;4.97;;
67717;SDS011;54511;47.532;19.180;2022-08-19T09:04:23;9.73;;;5.00;;
67717;SDS011;54511;47.532;19.180;2022-08-19T09:06:51;9.50;;;5.47;;
67717;SDS011;54511;47.532;19.180;2022-08-19T09:09:24;8.52;;;5.72;;
67717;SDS011;54511;47.532;19.180;2022-08-19T09:12:00;7.43;;;5.50;;
67717;SDS011;54511;47.532;19.180;2022-08-19T09:14:35;10.43;;;5.10;;
67717;SDS011;54511;47.532;19.180;2022-08-19T09:17:06;7.97;;;5.30;;
67717;SDS011;54511;47.532;19.180;2022-08-19T09:19:34;6.78;;;5.07;;
67717;SDS011;54511;47.532;19.180;2022-08-19T09:22:01;7.28;;;5.28;;
67717;SDS011;54511;47.532;19.180;2022-08-19T09:24:30;8.13;;;5.00;;
67717;SDS011;54511;47.532;19.180;2022-08-19T09:26:57;6.87;;;5.12;;
67717;SDS011;54511;47.532;19.180;2022-08-19T09:29:24;7.22;;;5.55;;
67717;SDS011;54511;47.532;19.180;2022-08-19T09:31:55;7.50;;;5.25;;
67717;SDS011;54511;47.532;19.180;2022-08-19T09:34:22;9.52;;;5.30;;
67717;SDS011;54511;47.532;19.180;2022-08-19T09:36:50;7.65;;;4.97;;
67717;SDS011;54511;47.532;19.180;2022-08-19T09:39:18;7.18;;;4.90;;
67717;SDS011;54511;47.532;19.180;2022-08-19T09:42:08;8.23;;;4.90;;
67717;SDS011;54511;47.532;19.180;2022-08-19T09:44:39;7.95;;;5.10;;
67717;SDS011;54511;47.532;19.180;2022-08-19T09:47:14;8.55;;;5.40;;
67717;SDS011;54511;47.532;19.180;2022-08-19T09:50:03;8.75;;;5.35;;
67717;SDS011;54511;47.532;19.180;2022-08-19T09:52:44;9.63;;;5.55;;
67717;SDS011;54511;47.532;19.180;2022-08-19T09:55:15;9.55;;;5.82;;
67717;SDS011;54511;47.532;19.180;2022-08-19T09:57:46;9.50;;;5.25;;
67717;SDS011;54511;47.532;19.180;2022-08-19T10:00:15;8.18;;;5.50;;
67717;SDS011;54511;47.532;19.180;2022-08-19T10:02:41;9.65;;;5.70;;
67717;SDS011;54511;47.532;19.180;2022-08-19T10:05:22;8.52;;;5.62;;
67717;SDS011;54511;47.532;19.180;2022-08-19T10:08:07;10.15;;;5.53;;
67717;SDS011;54511;47.532;19.180;2022-08-19T10:10:34;14.13;;;5.57;;
67717;SDS011;54511;47.532;19.180;2022-08-19T10:13:25;7.90;;;5.40;;
67717;SDS011;54511;47.532;19.180;2022-08-19T10:16:02;7.15;;;5.40;;
67717;SDS011;54511;47.532;19.180;2022-08-19T10:18:30;8.52;;;5.50;;
67717;SDS011;54511;47.532;19.180;2022-08-19T10:21:04;7.95;;;5.30;;
67717;SDS011;54511;47.532;19.180;2022-08-19T10:23:35;9.27;;;5.75;;
67717;SDS011;54511;47.532;19.180;2022-08-19T10:26:26;6.93;;;5.25;;
67717;SDS011;54511;47.532;19.180;2022-08-19T10:29:34;7.47;;;5.57;;
67717;SDS011;54511;47.532;19.180;2022-08-19T10:32:02;8.23;;;5.22;;
67717;SDS011;54511;47.532;19.180;2022-08-19T10:34:37;9.25;;;5.57;;
67717;SDS011;54511;47.532;19.180;2022-08-19T10:37:06;8.45;;;5.95;;
67717;SDS011;54511;47.532;19.180;2022-08-19T10:39:34;7.37;;;5.37;;
67717;SDS011;54511;47.532;19.180;2022-08-19T10:42:04;12.02;;;5.40;;
67717;SDS011;54511;47.532;19.180;2022-08-19T10:47:26;9.15;;;5.55;;
67717;SDS011;54511;47.532;19.180;2022-08-19T10:49:54;9.52;;;5.55;;
67717;SDS011;54511;47.532;19.180;2022-08-19T10:53:02;9.07;;;5.68;;
67717;SDS011;54511;47.532;19.180;2022-08-19T10:55:30;7.15;;;5.20;;
67717;SDS011;54511;47.532;19.180;2022-08-19T10:58:16;9.00;;;5.40;;
67717;SDS011;54511;47.532;19.180;2022-08-19T11:00:52;8.55;;;5.72;;
67717;SDS011;54511;47.532;19.180;2022-08-19T11:03:22;9.00;;;5.25;;
67717;SDS011;54511;47.532;19.180;2022-08-19T11:05:59;7.05;;;5.00;;
67717;SDS011;54511;47.532;19.180;2022-08-19T11:08:35;9.73;;;4.97;;
67717;SDS011;54511;47.532;19.180;2022-08-19T11:11:05;8.45;;;5.03;;
67717;SDS011;54511;47.532;19.180;2022-08-19T11:13:37;9.93;;;5.60;;
67717;SDS011;54511;47.532;19.180;2022-08-19T11:16:24;11.65;;;5.00;;
67717;SDS011;54511;47.532;19.180;2022-08-19T11:18:57;8.15;;;5.47;;
67717;SDS011;54511;47.532;19.180;2022-08-19T11:21:25;6.45;;;5.07;;
67717;SDS011;54511;47.532;19.180;2022-08-19T11:24:03;7.53;;;5.22;;
67717;SDS011;54511;47.532;19.180;2022-08-19T11:26:32;7.25;;;5.70;;
67717;SDS011;54511;47.532;19.180;2022-08-19T11:28:59;8.25;;;5.30;;
67717;SDS011;54511;47.532;19.180;2022-08-19T11:31:39;9.00;;;5.10;;
67717;SDS011;54511;47.532;19.180;2022-08-19T11:34:25;7.47;;;4.72;;
67717;SDS011;54511;47.532;19.180;2022-08-19T11:36:53;8.40;;;4.97;;
67717;SDS011;54511;47.532;19.180;2022-08-19T11:39:25;9.02;;;4.95;;
67717;SDS011;54511;47.532;19.180;2022-08-19T11:42:07;9.15;;;5.00;;
67717;SDS011;54511;47.532;19.180;2022-08-19T11:44:53;9.40;;;4.90;;
67717;SDS011;54511;47.532;19.180;2022-08-19T11:47:20;8.73;;;5.05;;
67717;SDS011;54511;47.532;19.180;2022-08-19T11:49:49;6.90;;;5.10;;
67717;SDS011;54511;47.532;19.180;2022-08-19T11:52:34;8.48;;;5.00;;
67717;SDS011;54511;47.532;19.180;2022-08-19T11:55:22;7.93;;;5.15;;
67717;SDS011;54511;47.532;19.180;2022-08-19T11:58:07;8.40;;;4.90;;
67717;SDS011;54511;47.532;19.180;2022-08-19T12:00:34;11.10;;;5.00;;
67717;SDS011;54511;47.532;19.180;2022-08-19T12:03:01;9.80;;;5.43;;
67717;SDS011;54511;47.532;19.180;2022-08-19T12:05:30;6.95;;;4.90;;
67717;SDS011;54511;47.532;19.180;2022-08-19T12:07:57;8.32;;;4.90;;
67717;SDS011;54511;47.532;19.180;2022-08-19T12:10:41;9.05;;;5.00;;
67717;SDS011;54511;47.532;19.180;2022-08-19T12:13:09;11.15;;;5.15;;
67717;SDS011;54511;47.532;19.180;2022-08-19T12:15:39;8.02;;;4.90;;
67717;SDS011;54511;47.532;19.180;2022-08-19T12:18:15;9.75;;;5.20;;
67717;SDS011;54511;47.532;19.180;2022-08-19T12:20:43;9.20;;;4.97;;
67717;SDS011;54511;47.532;19.180;2022-08-19T12:23:11;9.93;;;5.35;;
67717;SDS011;54511;47.532;19.180;2022-08-19T12:25:43;10.00;;;4.97;;
67717;SDS011;54511;47.532;19.180;2022-08-19T12:28:50;9.45;;;5.12;;
67717;SDS011;54511;47.532;19.180;2022-08-19T12:31:52;8.48;;;5.32;;
67717;SDS011;54511;47.532;19.180;2022-08-19T12:34:28;9.70;;;5.32;;
67717;SDS011;54511;47.532;19.180;2022-08-19T12:36:58;7.45;;;5.03;;
67717;SDS011;54511;47.532;19.180;2022-08-19T12:39:33;9.93;;;5.85;;
67717;SDS011;54511;47.532;19.180;2022-08-19T12:42:03;9.85;;;5.15;;
67717;SDS011;54511;47.532;19.180;2022-08-19T12:44:32;7.77;;;5.87;;
67717;SDS011;54511;47.532;19.180;2022-08-19T12:47:00;13.82;;;7.20;;
67717;SDS011;54511;47.532;19.180;2022-08-19T12:52:08;11.18;;;7.60;;
67717;SDS011;54511;47.532;19.180;2022-08-19T12:54:35;10.07;;;7.72;;
67717;SDS011;54511;47.532;19.180;2022-08-19T12:57:04;13.23;;;8.18;;
67717;SDS011;54511;47.532;19.180;2022-08-19T12:59:33;13.02;;;8.27;;
67717;SDS011;54511;47.532;19.180;2022-08-19T13:02:01;10.40;;;7.35;;
67717;SDS011;54511;47.532;19.180;2022-08-19T13:04:30;10.10;;;7.00;;
67717;SDS011;54511;47.532;19.180;2022-08-19T13:06:57;13.43;;;7.70;;
67717;SDS011;54511;47.532;19.180;2022-08-19T13:09:26;12.50;;;7.75;;
67717;SDS011;54511;47.532;19.180;2022-08-19T13:11:53;9.60;;;7.45;;
67717;SDS011;54511;47.532;19.180;2022-08-19T13:14:21;16.33;;;7.65;;
67717;SDS011;54511;47.532;19.180;2022-08-19T13:16:48;11.88;;;7.53;;
67717;SDS011;54511;47.532;19.180;2022-08-19T13:19:15;11.65;;;7.03;;
67717;SDS011;54511;47.532;19.180;2022-08-19T13:21:48;15.45;;;7.95;;
67717;SDS011;54511;47.532;19.180;2022-08-19T13:24:16;11.02;;;7.10;;
67717;SDS011;54511;47.532;19.180;2022-08-19T13:26:44;12.63;;;7.50;;
67717;SDS011;54511;47.532;19.180;2022-08-19T13:29:11;12.95;;;7.35;;
67717;SDS011;54511;47.532;19.180;2022-08-19T13:31:55;10.57;;;6.93;;
67717;SDS011;54511;47.532;19.180;2022-08-19T13:34:39;8.77;;;6.65;;
67717;SDS011;54511;47.532;19.180;2022-08-19T13:37:06;10.88;;;6.95;;
67717;SDS011;54511;47.532;19.180;2022-08-19T13:39:33;10.55;;;7.07;;
67717;SDS011;54511;47.532;19.180;2022-08-19T13:42:03;11.80;;;6.80;;
67717;SDS011;54511;47.532;19.180;2022-08-19T13:46:59;9.55;;;6.70;;
67717;SDS011;54511;47.532;19.180;2022-08-19T13:49:32;14.00;;;7.10;;
67717;SDS011;54511;47.532;19.180;2022-08-19T13:51:59;16.00;;;7.65;;
67717;SDS011;54511;47.532;19.180;2022-08-19T13:54:27;15.38;;;8.65;;
67717;SDS011;54511;47.532;19.180;2022-08-19T13:56:53;11.57;;;7.80;;
67717;SDS011;54511;47.532;19.180;2022-08-19T13:59:22;14.48;;;8.10;;
67717;SDS011;54511;47.532;19.180;2022-08-19T14:01:50;14.13;;;8.70;;
67717;SDS011;54511;47.532;19.180;2022-08-19T14:04:18;11.85;;;8.18;;
67717;SDS011;54511;47.532;19.180;2022-08-19T14:06:45;27.58;;;11.02;;
67717;SDS011;54511;47.532;19.180;2022-08-19T14:09:12;18.25;;;11.57;;
67717;SDS011;54511;47.532;19.180;2022-08-19T14:11:39;22.70;;;13.48;;
67717;SDS011;54511;47.532;19.180;2022-08-19T14:14:06;18.45;;;14.40;;
67717;SDS011;54511;47.532;19.180;2022-08-19T14:16:34;20.67;;;15.25;;
67717;SDS011;54511;47.532;19.180;2022-08-19T14:19:01;25.42;;;17.02;;
67717;SDS011;54511;47.532;19.180;2022-08-19T14:21:28;25.77;;;16.58;;
67717;SDS011;54511;47.532;19.180;2022-08-19T14:23:55;24.83;;;15.13;;
67717;SDS011;54511;47.532;19.180;2022-08-19T14:26:22;20.70;;;12.63;;
67717;SDS011;54511;47.532;19.180;2022-08-19T14:28:49;15.40;;;6.35;;
67717;SDS011;54511;47.532;19.180;2022-08-19T14:31:17;22.73;;;5.22;;
67717;SDS011;54511;47.532;19.180;2022-08-19T14:33:47;18.48;;;5.43;;
67717;SDS011;54511;47.532;19.180;2022-08-19T14:36:15;12.43;;;5.07;;
67717;SDS011;54511;47.532;19.180;2022-08-19T14:38:43;15.85;;;4.82;;
67717;SDS011;54511;47.532;19.180;2022-08-19T14:41:11;14.40;;;4.62;;
67717;SDS011;54511;47.532;19.180;2022-08-19T14:43:41;17.50;;;5.03;;
67717;SDS011;54511;47.532;19.180;2022-08-19T14:46:10;11.63;;;4.55;;
67717;SDS011;54511;47.532;19.180;2022-08-19T14:48:38;12.07;;;4.25;;
67717;SDS011;54511;47.532;19.180;2022-08-19T14:51:06;16.45;;;4.55;;
67717;SDS011;54511;47.532;19.180;2022-08-19T14:53:33;13.02;;;4.32;;